sensor_id;sensor_type;location;lat;lon;timestamp;temperature;humidity
61004;DHT22;46889;37.310;13.582;2023-04-01T00:01:05;14.10;99.90
61004;DHT22;46889;37.310;13.582;2023-04-01T00:03:32;14.10;99.90
61004;DHT22;46889;37.310;13.582;2023-04-01T00:05:59;14.20;99.90
61004;DHT22;46889;37.310;13.582;2023-04-01T00:08:27;14.30;99.90
61004;DHT22;46889;37.310;13.582;2023-04-01T00:10:55;14.40;99.90
61004;DHT22;46889;37.310;13.582;2023-04-01T00:13:24;14.40;99.90
61004;DHT22;46889;37.310;13.582;2023-04-01T00:15:55;14.50;99.90
61004;DHT22;46889;37.310;13.582;2023-04-01T00:18:21;14.60;99.90
61004;DHT22;46889;37.310;13.582;2023-04-01T00:20:51;14.60;99.90
61004;DHT22;46889;37.310;13.582;2023-04-01T00:23:21;14.70;99.90
61004;DHT22;46889;37.310;13.582;2023-04-01T00:25:48;14.70;99.90
61004;DHT22;46889;37.310;13.582;2023-04-01T00:28:17;14.80;99.90
61004;DHT22;46889;37.310;13.582;2023-04-01T00:30:45;14.70;99.90
61004;DHT22;46889;37.310;13.582;2023-04-01T00:33:12;14.80;99.90
61004;DHT22;46889;37.310;13.582;2023-04-01T00:35:39;14.80;99.90
61004;DHT22;46889;37.310;13.582;2023-04-01T00:38:06;14.80;99.90
61004;DHT22;46889;37.310;13.582;2023-04-01T00:40:38;14.80;99.90
61004;DHT22;46889;37.310;13.582;2023-04-01T00:43:14;14.80;99.90
61004;DHT22;46889;37.310;13.582;2023-04-01T00:45:42;14.80;99.90
61004;DHT22;46889;37.310;13.582;2023-04-01T00:48:13;14.90;99.90
61004;DHT22;46889;37.310;13.582;2023-04-01T00:50:42;14.90;99.90
61004;DHT22;46889;37.310;13.582;2023-04-01T00:53:11;14.90;99.90
61004;DHT22;46889;37.310;13.582;2023-04-01T00:55:41;14.90;99.90
61004;DHT22;46889;37.310;13.582;2023-04-01T00:58:14;14.90;99.90
61004;DHT22;46889;37.310;13.582;2023-04-01T01:00:40;14.80;99.90
61004;DHT22;46889;37.310;13.582;2023-04-01T01:03:08;14.80;99.90
61004;DHT22;46889;37.310;13.582;2023-04-01T01:11:05;14.80;99.90
61004;DHT22;46889;37.310;13.582;2023-04-01T01:13:40;14.70;99.90
61004;DHT22;46889;37.310;13.582;2023-04-01T01:16:35;14.10;99.90
61004;DHT22;46889;37.310;13.582;2023-04-01T01:27:42;13.30;99.90
61004;DHT22;46889;37.310;13.582;2023-04-01T01:30:41;13.30;99.90
61004;DHT22;46889;37.310;13.582;2023-04-01T01:35:58;13.30;99.90
61004;DHT22;46889;37.310;13.582;2023-04-01T01:38:29;13.30;99.90
61004;DHT22;46889;37.310;13.582;2023-04-01T01:40:59;13.20;99.90
61004;DHT22;46889;37.310;13.582;2023-04-01T01:43:32;13.20;99.90
61004;DHT22;46889;37.310;13.582;2023-04-01T01:46:02;13.10;99.90
61004;DHT22;46889;37.310;13.582;2023-04-01T01:48:30;13.20;99.90
61004;DHT22;46889;37.310;13.582;2023-04-01T01:50:57;13.30;99.90
61004;DHT22;46889;37.310;13.582;2023-04-01T01:53:23;13.50;99.90
61004;DHT22;46889;37.310;13.582;2023-04-01T01:55:49;13.60;99.90
61004;DHT22;46889;37.310;13.582;2023-04-01T01:58:35;13.80;99.90
61004;DHT22;46889;37.310;13.582;2023-04-01T02:01:10;13.90;99.90
61004;DHT22;46889;37.310;13.582;2023-04-01T02:03:39;13.90;99.90
61004;DHT22;46889;37.310;13.582;2023-04-01T02:06:11;13.90;99.90
61004;DHT22;46889;37.310;13.582;2023-04-01T02:08:44;13.80;99.90
61004;DHT22;46889;37.310;13.582;2023-04-01T02:11:16;13.70;99.90
61004;DHT22;46889;37.310;13.582;2023-04-01T02:14:07;13.70;99.90
61004;DHT22;46889;37.310;13.582;2023-04-01T02:16:59;13.70;99.90
61004;DHT22;46889;37.310;13.582;2023-04-01T02:19:40;13.80;99.90
61004;DHT22;46889;37.310;13.582;2023-04-01T02:22:13;14.00;99.90
61004;DHT22;46889;37.310;13.582;2023-04-01T02:24:43;14.10;99.90
61004;DHT22;46889;37.310;13.582;2023-04-01T02:27:12;14.10;99.90
61004;DHT22;46889;37.310;13.582;2023-04-01T02:29:38;14.20;99.90
61004;DHT22;46889;37.310;13.582;2023-04-01T02:32:06;14.20;99.90
61004;DHT22;46889;37.310;13.582;2023-04-01T02:34:33;14.20;99.90
61004;DHT22;46889;37.310;13.582;2023-04-01T02:37:00;14.10;99.90
61004;DHT22;46889;37.310;13.582;2023-04-01T02:39:26;14.10;99.90
61004;DHT22;46889;37.310;13.582;2023-04-01T02:41:53;14.10;99.90
61004;DHT22;46889;37.310;13.582;2023-04-01T02:44:19;14.00;99.90
61004;DHT22;46889;37.310;13.582;2023-04-01T02:46:45;14.00;99.90
61004;DHT22;46889;37.310;13.582;2023-04-01T02:49:11;14.00;99.90
61004;DHT22;46889;37.310;13.582;2023-04-01T02:51:38;13.90;99.90
61004;DHT22;46889;37.310;13.582;2023-04-01T02:54:04;13.90;99.90
61004;DHT22;46889;37.310;13.582;2023-04-01T02:56:30;13.80;99.90
61004;DHT22;46889;37.310;13.582;2023-04-01T02:58:57;13.80;99.90
61004;DHT22;46889;37.310;13.582;2023-04-01T03:01:25;13.70;99.90
61004;DHT22;46889;37.310;13.582;2023-04-01T03:03:54;13.80;99.90
61004;DHT22;46889;37.310;13.582;2023-04-01T03:06:20;13.80;99.90
61004;DHT22;46889;37.310;13.582;2023-04-01T03:08:46;13.90;99.90
61004;DHT22;46889;37.310;13.582;2023-04-01T03:11:14;13.80;99.90
61004;DHT22;46889;37.310;13.582;2023-04-01T03:13:41;13.90;99.90
61004;DHT22;46889;37.310;13.582;2023-04-01T03:16:07;13.80;99.90
61004;DHT22;46889;37.310;13.582;2023-04-01T03:18:33;13.80;99.90
61004;DHT22;46889;37.310;13.582;2023-04-01T03:21:19;13.70;99.90
61004;DHT22;46889;37.310;13.582;2023-04-01T03:23:46;13.70;99.90
61004;DHT22;46889;37.310;13.582;2023-04-01T03:26:12;13.70;99.90
61004;DHT22;46889;37.310;13.582;2023-04-01T03:28:38;13.50;99.90
61004;DHT22;46889;37.310;13.582;2023-04-01T03:31:06;13.40;99.90
61004;DHT22;46889;37.310;13.582;2023-04-01T03:33:32;13.20;99.90
61004;DHT22;46889;37.310;13.582;2023-04-01T03:35:59;13.30;99.90
61004;DHT22;46889;37.310;13.582;2023-04-01T03:38:26;13.20;99.90
61004;DHT22;46889;37.310;13.582;2023-04-01T03:40:54;13.30;99.90
61004;DHT22;46889;37.310;13.582;2023-04-01T03:43:20;13.30;99.90
61004;DHT22;46889;37.310;13.582;2023-04-01T03:45:49;13.30;99.90
61004;DHT22;46889;37.310;13.582;2023-04-01T03:48:16;13.40;99.90
61004;DHT22;46889;37.310;13.582;2023-04-01T03:50:43;13.50;99.90
61004;DHT22;46889;37.310;13.582;2023-04-01T03:53:10;13.40;99.90
61004;DHT22;46889;37.310;13.582;2023-04-01T03:55:36;13.30;99.90
61004;DHT22;46889;37.310;13.582;2023-04-01T03:58:03;13.30;99.90
61004;DHT22;46889;37.310;13.582;2023-04-01T04:00:29;13.20;99.90
61004;DHT22;46889;37.310;13.582;2023-04-01T04:02:56;13.30;99.90
61004;DHT22;46889;37.310;13.582;2023-04-01T04:05:24;13.40;99.90
61004;DHT22;46889;37.310;13.582;2023-04-01T04:07:50;13.40;99.90
61004;DHT22;46889;37.310;13.582;2023-04-01T04:10:17;13.50;99.90
61004;DHT22;46889;37.310;13.582;2023-04-01T04:12:45;13.50;99.90
61004;DHT22;46889;37.310;13.582;2023-04-01T04:15:11;13.60;99.90
61004;DHT22;46889;37.310;13.582;2023-04-01T04:17:37;13.60;99.90
61004;DHT22;46889;37.310;13.582;2023-04-01T04:20:04;13.60;99.90
61004;DHT22;46889;37.310;13.582;2023-04-01T04:22:30;13.70;99.90
61004;DHT22;46889;37.310;13.582;2023-04-01T04:24:56;13.70;99.90
61004;DHT22;46889;37.310;13.582;2023-04-01T04:27:22;13.70;99.90
61004;DHT22;46889;37.310;13.582;2023-04-01T04:29:48;13.70;99.90
61004;DHT22;46889;37.310;13.582;2023-04-01T04:32:15;13.70;99.90
61004;DHT22;46889;37.310;13.582;2023-04-01T04:34:41;13.80;99.90
61004;DHT22;46889;37.310;13.582;2023-04-01T04:37:07;13.80;99.90
61004;DHT22;46889;37.310;13.582;2023-04-01T04:39:33;13.90;99.90
61004;DHT22;46889;37.310;13.582;2023-04-01T04:42:00;13.90;99.90
61004;DHT22;46889;37.310;13.582;2023-04-01T04:44:26;13.90;99.90
61004;DHT22;46889;37.310;13.582;2023-04-01T04:46:52;13.80;99.90
61004;DHT22;46889;37.310;13.582;2023-04-01T04:49:18;13.90;99.90
61004;DHT22;46889;37.310;13.582;2023-04-01T04:51:44;13.90;99.90
61004;DHT22;46889;37.310;13.582;2023-04-01T04:54:11;14.00;99.90
61004;DHT22;46889;37.310;13.582;2023-04-01T04:56:37;14.00;99.90
61004;DHT22;46889;37.310;13.582;2023-04-01T04:59:03;14.00;99.90
61004;DHT22;46889;37.310;13.582;2023-04-01T05:01:29;14.10;99.90
61004;DHT22;46889;37.310;13.582;2023-04-01T05:03:55;14.10;99.90
61004;DHT22;46889;37.310;13.582;2023-04-01T05:06:22;14.20;99.90
61004;DHT22;46889;37.310;13.582;2023-04-01T05:08:48;14.20;99.90
61004;DHT22;46889;37.310;13.582;2023-04-01T05:11:18;14.20;99.90
61004;DHT22;46889;37.310;13.582;2023-04-01T05:13:45;14.20;99.90
61004;DHT22;46889;37.310;13.582;2023-04-01T05:16:17;14.20;99.90
61004;DHT22;46889;37.310;13.582;2023-04-01T05:18:44;14.20;99.90
61004;DHT22;46889;37.310;13.582;2023-04-01T05:21:13;14.20;99.90
61004;DHT22;46889;37.310;13.582;2023-04-01T05:23:40;14.20;99.90
61004;DHT22;46889;37.310;13.582;2023-04-01T05:26:12;14.10;99.90
61004;DHT22;46889;37.310;13.582;2023-04-01T05:28:39;14.20;99.90
61004;DHT22;46889;37.310;13.582;2023-04-01T05:31:08;14.10;99.90
61004;DHT22;46889;37.310;13.582;2023-04-01T05:33:34;14.20;99.90
61004;DHT22;46889;37.310;13.582;2023-04-01T05:36:14;14.20;99.90
61004;DHT22;46889;37.310;13.582;2023-04-01T05:38:41;14.20;99.90
61004;DHT22;46889;37.310;13.582;2023-04-01T05:41:07;14.20;99.90
61004;DHT22;46889;37.310;13.582;2023-04-01T05:43:36;14.20;99.90
61004;DHT22;46889;37.310;13.582;2023-04-01T05:46:03;14.30;99.90
61004;DHT22;46889;37.310;13.582;2023-04-01T05:48:29;14.30;99.90
61004;DHT22;46889;37.310;13.582;2023-04-01T05:50:55;14.40;99.90
61004;DHT22;46889;37.310;13.582;2023-04-01T05:53:21;14.40;99.90
61004;DHT22;46889;37.310;13.582;2023-04-01T05:55:47;14.40;99.90
61004;DHT22;46889;37.310;13.582;2023-04-01T05:58:14;14.30;99.90
61004;DHT22;46889;37.310;13.582;2023-04-01T06:00:40;14.40;99.90
61004;DHT22;46889;37.310;13.582;2023-04-01T06:03:06;14.30;99.90
61004;DHT22;46889;37.310;13.582;2023-04-01T06:05:39;14.40;99.90
61004;DHT22;46889;37.310;13.582;2023-04-01T06:08:11;14.30;99.90
61004;DHT22;46889;37.310;13.582;2023-04-01T06:11:00;14.30;99.90
61004;DHT22;46889;37.310;13.582;2023-04-01T06:16:29;14.50;99.90
61004;DHT22;46889;37.310;13.582;2023-04-01T06:24:29;15.60;99.90
61004;DHT22;46889;37.310;13.582;2023-04-01T06:35:40;17.30;99.90
61004;DHT22;46889;37.310;13.582;2023-04-01T06:46:50;17.80;99.90
61004;DHT22;46889;37.310;13.582;2023-04-01T06:57:47;18.60;99.90
61004;DHT22;46889;37.310;13.582;2023-04-01T07:00:40;18.30;99.90
61004;DHT22;46889;37.310;13.582;2023-04-01T07:06:03;19.00;99.90
61004;DHT22;46889;37.310;13.582;2023-04-01T07:08:29;19.40;99.90
61004;DHT22;46889;37.310;13.582;2023-04-01T07:11:03;19.70;99.90
61004;DHT22;46889;37.310;13.582;2023-04-01T07:13:39;19.20;99.90
61004;DHT22;46889;37.310;13.582;2023-04-01T07:24:44;19.60;99.90
61004;DHT22;46889;37.310;13.582;2023-04-01T07:27:12;20.00;99.90
61004;DHT22;46889;37.310;13.582;2023-04-01T07:29:40;20.50;99.90
61004;DHT22;46889;37.310;13.582;2023-04-01T07:32:12;21.20;99.90
61004;DHT22;46889;37.310;13.582;2023-04-01T07:34:46;21.90;99.90
61004;DHT22;46889;37.310;13.582;2023-04-01T07:37:42;22.50;99.90
61004;DHT22;46889;37.310;13.582;2023-04-01T07:48:57;20.80;99.90
61004;DHT22;46889;37.310;13.582;2023-04-01T07:51:37;20.80;99.90
61004;DHT22;46889;37.310;13.582;2023-04-01T07:54:21;20.80;99.90
61004;DHT22;46889;37.310;13.582;2023-04-01T07:57:06;20.80;99.90
61004;DHT22;46889;37.310;13.582;2023-04-01T07:59:45;20.60;99.90
61004;DHT22;46889;37.310;13.582;2023-04-01T08:08:13;21.10;99.90
61004;DHT22;46889;37.310;13.582;2023-04-01T08:13:50;21.70;99.90
61004;DHT22;46889;37.310;13.582;2023-04-01T08:19:33;21.80;99.90
61004;DHT22;46889;37.310;13.582;2023-04-01T08:22:12;21.80;99.90
61004;DHT22;46889;37.310;13.582;2023-04-01T08:24:43;22.20;99.90
61004;DHT22;46889;37.310;13.582;2023-04-01T08:30:20;21.10;99.90
61004;DHT22;46889;37.310;13.582;2023-04-01T08:32:59;20.70;99.90
61004;DHT22;46889;37.310;13.582;2023-04-01T08:35:33;21.10;99.90
61004;DHT22;46889;37.310;13.582;2023-04-01T08:38:04;21.70;99.90
61004;DHT22;46889;37.310;13.582;2023-04-01T09:15:54;21.90;99.90
61004;DHT22;46889;37.310;13.582;2023-04-01T09:38:23;22.10;99.90
61004;DHT22;46889;37.310;13.582;2023-04-01T09:40:58;22.60;99.90
61004;DHT22;46889;37.310;13.582;2023-04-01T09:43:58;21.90;99.90
61004;DHT22;46889;37.310;13.582;2023-04-01T09:49:41;22.10;99.90
61004;DHT22;46889;37.310;13.582;2023-04-01T09:52:18;22.40;99.90
61004;DHT22;46889;37.310;13.582;2023-04-01T09:55:43;22.00;99.90
61004;DHT22;46889;37.310;13.582;2023-04-01T10:03:47;22.50;99.90
61004;DHT22;46889;37.310;13.582;2023-04-01T10:15:18;22.20;99.90
61004;DHT22;46889;37.310;13.582;2023-04-01T10:26:58;21.90;99.90
61004;DHT22;46889;37.310;13.582;2023-04-01T10:38:03;21.40;99.90
61004;DHT22;46889;37.310;13.582;2023-04-01T10:46:30;21.30;99.90
61004;DHT22;46889;37.310;13.582;2023-04-01T10:54:43;21.60;99.90
61004;DHT22;46889;37.310;13.582;2023-04-01T11:00:15;21.80;99.90
61004;DHT22;46889;37.310;13.582;2023-04-01T11:17:09;22.50;99.90
61004;DHT22;46889;37.310;13.582;2023-04-01T11:22:44;22.50;99.90
61004;DHT22;46889;37.310;13.582;2023-04-01T11:42:34;22.50;99.90
61004;DHT22;46889;37.310;13.582;2023-04-01T11:45:23;22.60;99.90
61004;DHT22;46889;37.310;13.582;2023-04-01T11:54:18;23.50;99.90
61004;DHT22;46889;37.310;13.582;2023-04-01T11:59:57;23.20;99.90
61004;DHT22;46889;37.310;13.582;2023-04-01T12:02:28;23.40;99.90
61004;DHT22;46889;37.310;13.582;2023-04-01T12:08:02;22.40;99.90
61004;DHT22;46889;37.310;13.582;2023-04-01T12:10:45;22.00;99.90
61004;DHT22;46889;37.310;13.582;2023-04-01T12:14:34;21.60;99.90
61004;DHT22;46889;37.310;13.582;2023-04-01T12:19:26;21.80;99.90
61004;DHT22;46889;37.310;13.582;2023-04-01T12:27:29;22.70;99.90
61004;DHT22;46889;37.310;13.582;2023-04-01T12:30:14;23.20;99.90
61004;DHT22;46889;37.310;13.582;2023-04-01T12:33:18;23.40;99.90
61004;DHT22;46889;37.310;13.582;2023-04-01T12:36:12;23.50;99.90
61004;DHT22;46889;37.310;13.582;2023-04-01T12:41:24;23.70;99.90
61004;DHT22;46889;37.310;13.582;2023-04-01T12:44:08;24.00;99.90
61004;DHT22;46889;37.310;13.582;2023-04-01T12:46:50;23.90;99.90
61004;DHT22;46889;37.310;13.582;2023-04-01T12:52:16;23.90;99.90
61004;DHT22;46889;37.310;13.582;2023-04-01T13:14:24;24.40;99.90
61004;DHT22;46889;37.310;13.582;2023-04-01T13:27:44;24.50;99.90
61004;DHT22;46889;37.310;13.582;2023-04-01T13:30:28;24.20;99.90
61004;DHT22;46889;37.310;13.582;2023-04-01T13:44:20;23.20;99.90
61004;DHT22;46889;37.310;13.582;2023-04-01T13:49:42;23.10;99.90
61004;DHT22;46889;37.310;13.582;2023-04-01T14:06:34;22.90;99.90
61004;DHT22;46889;37.310;13.582;2023-04-01T14:27:59;21.90;99.90
61004;DHT22;46889;37.310;13.582;2023-04-01T14:30:43;21.80;99.90
61004;DHT22;46889;37.310;13.582;2023-04-01T14:39:22;21.70;99.90
61004;DHT22;46889;37.310;13.582;2023-04-01T14:47:43;21.40;99.90
61004;DHT22;46889;37.310;13.582;2023-04-01T14:50:29;21.50;99.90
61004;DHT22;46889;37.310;13.582;2023-04-01T14:58:15;21.50;99.90
61004;DHT22;46889;37.310;13.582;2023-04-01T15:04:19;21.20;99.90
61004;DHT22;46889;37.310;13.582;2023-04-01T15:09:46;21.20;99.90
61004;DHT22;46889;37.310;13.582;2023-04-01T15:12:46;21.00;99.90
61004;DHT22;46889;37.310;13.582;2023-04-01T15:23:34;20.70;99.90
61004;DHT22;46889;37.310;13.582;2023-04-01T15:26:11;20.70;99.90
61004;DHT22;46889;37.310;13.582;2023-04-01T15:31:42;20.90;99.90
61004;DHT22;46889;37.310;13.582;2023-04-01T15:37:04;20.80;99.90
61004;DHT22;46889;37.310;13.582;2023-04-01T15:39:59;20.70;99.90
61004;DHT22;46889;37.310;13.582;2023-04-01T15:42:33;21.00;99.90
61004;DHT22;46889;37.310;13.582;2023-04-01T15:48:01;20.90;99.90
61004;DHT22;46889;37.310;13.582;2023-04-01T15:51:39;20.70;99.90
61004;DHT22;46889;37.310;13.582;2023-04-01T15:53:49;21.00;99.90
61004;DHT22;46889;37.310;13.582;2023-04-01T15:56:48;20.90;99.90
61004;DHT22;46889;37.310;13.582;2023-04-01T16:05:29;20.80;99.90
61004;DHT22;46889;37.310;13.582;2023-04-01T16:08:13;20.70;99.90
61004;DHT22;46889;37.310;13.582;2023-04-01T16:16:40;20.60;99.90
61004;DHT22;46889;37.310;13.582;2023-04-01T16:22:25;20.40;99.90
61004;DHT22;46889;37.310;13.582;2023-04-01T16:33:50;20.00;99.90
61004;DHT22;46889;37.310;13.582;2023-04-01T16:36:45;20.00;99.90
61004;DHT22;46889;37.310;13.582;2023-04-01T16:47:58;19.70;99.90
61004;DHT22;46889;37.310;13.582;2023-04-01T16:50:55;19.50;99.90
61004;DHT22;46889;37.310;13.582;2023-04-01T16:58:36;19.30;99.90
61004;DHT22;46889;37.310;13.582;2023-04-01T17:01:21;19.20;99.90
61004;DHT22;46889;37.310;13.582;2023-04-01T17:04:00;19.30;99.90
61004;DHT22;46889;37.310;13.582;2023-04-01T17:06:37;19.10;99.90
61004;DHT22;46889;37.310;13.582;2023-04-01T17:09:15;19.00;99.90
61004;DHT22;46889;37.310;13.582;2023-04-01T17:14:59;19.20;99.90
61004;DHT22;46889;37.310;13.582;2023-04-01T17:23:08;19.30;99.90
61004;DHT22;46889;37.310;13.582;2023-04-01T17:36:42;18.50;99.90
61004;DHT22;46889;37.310;13.582;2023-04-01T17:42:22;18.30;99.90
61004;DHT22;46889;37.310;13.582;2023-04-01T17:45:10;18.10;99.90
61004;DHT22;46889;37.310;13.582;2023-04-01T17:56:30;17.90;99.90
61004;DHT22;46889;37.310;13.582;2023-04-01T17:59:03;17.80;99.90
61004;DHT22;46889;37.310;13.582;2023-04-01T18:04:54;17.70;99.90
61004;DHT22;46889;37.310;13.582;2023-04-01T18:19:10;17.30;99.90
61004;DHT22;46889;37.310;13.582;2023-04-01T18:24:21;17.20;99.90
61004;DHT22;46889;37.310;13.582;2023-04-01T18:29:54;17.10;99.90
61004;DHT22;46889;37.310;13.582;2023-04-01T18:38:12;17.30;99.90
61004;DHT22;46889;37.310;13.582;2023-04-01T18:40:48;17.30;99.90
61004;DHT22;46889;37.310;13.582;2023-04-01T18:43:41;17.20;99.90
61004;DHT22;46889;37.310;13.582;2023-04-01T18:46:21;17.20;99.90
61004;DHT22;46889;37.310;13.582;2023-04-01T18:56:47;17.20;99.90
61004;DHT22;46889;37.310;13.582;2023-04-01T19:04:47;17.30;99.90
61004;DHT22;46889;37.310;13.582;2023-04-01T19:07:48;17.40;99.90
61004;DHT22;46889;37.310;13.582;2023-04-01T19:10:40;17.50;99.90
61004;DHT22;46889;37.310;13.582;2023-04-01T19:16:26;17.40;99.90
61004;DHT22;46889;37.310;13.582;2023-04-01T19:21:56;17.30;99.90
61004;DHT22;46889;37.310;13.582;2023-04-01T19:38:36;16.90;99.90
61004;DHT22;46889;37.310;13.582;2023-04-01T19:46:58;17.00;99.90
61004;DHT22;46889;37.310;13.582;2023-04-01T19:52:42;16.90;99.90
61004;DHT22;46889;37.310;13.582;2023-04-01T19:55:20;17.00;99.90
61004;DHT22;46889;37.310;13.582;2023-04-01T20:00:33;16.90;99.90
61004;DHT22;46889;37.310;13.582;2023-04-01T20:03:34;17.00;99.90
61004;DHT22;46889;37.310;13.582;2023-04-01T20:19:39;16.90;99.90
61004;DHT22;46889;37.310;13.582;2023-04-01T20:27:52;16.90;99.90
61004;DHT22;46889;37.310;13.582;2023-04-01T20:30:32;16.90;99.90
61004;DHT22;46889;37.310;13.582;2023-04-01T20:38:48;16.80;99.90
61004;DHT22;46889;37.310;13.582;2023-04-01T20:41:34;16.80;99.90
61004;DHT22;46889;37.310;13.582;2023-04-01T20:44:12;16.70;99.90
61004;DHT22;46889;37.310;13.582;2023-04-01T20:46:48;16.70;99.90
61004;DHT22;46889;37.310;13.582;2023-04-01T20:58:02;16.70;99.90
61004;DHT22;46889;37.310;13.582;2023-04-01T21:00:40;16.60;99.90
61004;DHT22;46889;37.310;13.582;2023-04-01T21:03:26;16.60;99.90
61004;DHT22;46889;37.310;13.582;2023-04-01T21:06:12;16.50;99.90
61004;DHT22;46889;37.310;13.582;2023-04-01T21:17:42;16.40;99.90
61004;DHT22;46889;37.310;13.582;2023-04-01T21:20:39;16.50;99.90
61004;DHT22;46889;37.310;13.582;2023-04-01T21:23:49;16.60;99.90
61004;DHT22;46889;37.310;13.582;2023-04-01T21:43:34;15.90;99.90
61004;DHT22;46889;37.310;13.582;2023-04-01T21:49:21;16.10;99.90
61004;DHT22;46889;37.310;13.582;2023-04-01T21:52:24;16.20;99.90
61004;DHT22;46889;37.310;13.582;2023-04-01T22:11:19;16.20;99.90
61004;DHT22;46889;37.310;13.582;2023-04-01T22:16:37;16.20;99.90
61004;DHT22;46889;37.310;13.582;2023-04-01T22:19:14;16.20;99.90
61004;DHT22;46889;37.310;13.582;2023-04-01T22:22:01;16.30;99.90
61004;DHT22;46889;37.310;13.582;2023-04-01T22:24:50;16.20;99.90
61004;DHT22;46889;37.310;13.582;2023-04-01T22:27:21;16.20;99.90
61004;DHT22;46889;37.310;13.582;2023-04-01T22:29:57;16.10;99.90
61004;DHT22;46889;37.310;13.582;2023-04-01T22:32:31;16.00;99.90
61004;DHT22;46889;37.310;13.582;2023-04-01T22:43:40;16.10;99.90
61004;DHT22;46889;37.310;13.582;2023-04-01T22:49:29;15.80;99.90
61004;DHT22;46889;37.310;13.582;2023-04-01T22:52:05;15.70;99.90
61004;DHT22;46889;37.310;13.582;2023-04-01T22:54:48;15.70;99.90
61004;DHT22;46889;37.310;13.582;2023-04-01T23:00:07;15.90;99.90
61004;DHT22;46889;37.310;13.582;2023-04-01T23:03:00;16.00;99.90
61004;DHT22;46889;37.310;13.582;2023-04-01T23:05:28;16.00;99.90
61004;DHT22;46889;37.310;13.582;2023-04-01T23:10:41;16.00;99.90
61004;DHT22;46889;37.310;13.582;2023-04-01T23:13:16;16.00;99.90
61004;DHT22;46889;37.310;13.582;2023-04-01T23:15:45;16.10;99.90
61004;DHT22;46889;37.310;13.582;2023-04-01T23:18:20;16.20;99.90
61004;DHT22;46889;37.310;13.582;2023-04-01T23:26:19;16.30;99.90
61004;DHT22;46889;37.310;13.582;2023-04-01T23:28:54;16.30;99.90
61004;DHT22;46889;37.310;13.582;2023-04-01T23:31:36;16.20;99.90
61004;DHT22;46889;37.310;13.582;2023-04-01T23:36:50;16.20;99.90
61004;DHT22;46889;37.310;13.582;2023-04-01T23:39:22;16.20;99.90
61004;DHT22;46889;37.310;13.582;2023-04-01T23:41:51;16.20;99.90
61004;DHT22;46889;37.310;13.582;2023-04-01T23:44:18;16.20;99.90
61004;DHT22;46889;37.310;13.582;2023-04-01T23:46:46;16.10;99.90
61004;DHT22;46889;37.310;13.582;2023-04-01T23:49:22;16.10;99.90
61004;DHT22;46889;37.310;13.582;2023-04-01T23:51:57;16.00;99.90
61004;DHT22;46889;37.310;13.582;2023-04-01T23:56:58;15.90;99.90
61004;DHT22;46889;37.310;13.582;2023-04-01T23:59:30;15.90;99.90
